Arvonia, Virginia
Current Conditions -  °F | °C
As of 9:35 PM on Sunday 23 Nov 2014 (Local Time) from KFVX Reporting Station
Moderate Rain Moderate Rain  
Wind Chill: 54°   Ceiling: 400
Heat Index: 54°   Visibility: 4mi
Dew Point: 54°   Wind: 3mph
Humidity: 100%   Direction: 130°SE
Pressure: 29.83"   Gusts: NA
Location:  37.68°N, 78.34°W
Report Text: KFVX 240235Z AUTO 13003KT 4SM RA OVC004 12/12 A2983 RMK AO2 P0004 T01210121
Loading
Personal Weather Stations






























Interactive Weather Map New forecast layout! Learn more

10-Day Weather Forecast

Advertisements
Track Severe Weather on mobile